createdAt,value
2022-10-23T00:00:17.179Z,148.07
2022-10-23T00:02:44.331Z,137.50
2022-10-23T00:05:11.517Z,141.32
2022-10-23T00:07:38.424Z,140.52
2022-10-23T00:10:05.470Z,134.25
2022-10-23T00:12:32.533Z,147.15
2022-10-23T00:14:59.250Z,157.48
2022-10-23T00:17:26.125Z,141.35
2022-10-23T00:19:52.704Z,139.43
2022-10-23T00:22:19.474Z,127.63
2022-10-23T00:24:46.045Z,137.05
2022-10-23T00:27:12.647Z,127.10
2022-10-23T00:29:39.460Z,178.48
2022-10-23T00:32:06.087Z,136.52
2022-10-23T00:34:32.740Z,128.52
2022-10-23T00:36:59.364Z,123.78
2022-10-23T00:39:26.071Z,119.97
2022-10-23T00:41:52.845Z,122.60
2022-10-23T00:44:22.243Z,141.38
2022-10-23T00:46:49.727Z,175.38
2022-10-23T00:49:17.098Z,157.38
2022-10-23T00:51:47.523Z,187.18
2022-10-23T00:54:25.364Z,143.75
2022-10-23T00:56:58.924Z,155.63
2022-10-23T00:59:26.742Z,134.65
2022-10-23T01:01:53.539Z,137.77
2022-10-23T01:04:21.263Z,124.63
2022-10-23T01:07:17.603Z,109.53
2022-10-23T01:09:53.057Z,127.70
2022-10-23T01:12:34.532Z,156.50
2022-10-23T01:15:16.415Z,167.18
2022-10-23T01:17:52.039Z,107.38
2022-10-23T01:20:37.003Z,115.13
2022-10-23T01:23:12.699Z,118.03
2022-10-23T01:25:57.615Z,111.63
2022-10-23T01:28:44.123Z,117.70
2022-10-23T01:31:16.452Z,113.90
2022-10-23T01:33:51.468Z,122.63
2022-10-23T01:36:21.357Z,131.27
2022-10-23T01:38:57.533Z,165.60
2022-10-23T01:41:27.911Z,114.38
2022-10-23T01:44:01.718Z,130.00
2022-10-23T01:46:30.286Z,130.00
2022-10-23T01:49:00.522Z,121.70
2022-10-23T01:51:31.157Z,134.13
2022-10-23T01:54:00.617Z,111.15
2022-10-23T01:56:32.149Z,125.65
2022-10-23T01:59:03.500Z,138.30
2022-10-23T02:01:32.635Z,103.10
2022-10-23T02:04:01.211Z,183.38
2022-10-23T02:06:28.784Z,199.95
2022-10-23T02:08:56.152Z,91.55
2022-10-23T02:11:23.146Z,144.98
2022-10-23T02:14:02.202Z,149.95
2022-10-23T02:16:37.803Z,111.15
2022-10-23T02:19:29.164Z,125.75
2022-10-23T02:22:04.993Z,148.77
2022-10-23T02:24:36.646Z,128.15
2022-10-23T02:27:09.904Z,203.20
2022-10-23T02:29:47.443Z,106.45
2022-10-23T02:32:15.334Z,98.32
2022-10-23T02:34:42.156Z,170.40
2022-10-23T02:37:08.821Z,79.75
2022-10-23T02:39:35.831Z,270.92
2022-10-23T02:42:23.473Z,203.60
2022-10-23T02:44:50.215Z,79.07
2022-10-23T02:47:32.127Z,198.60
2022-10-23T02:50:14.238Z,93.78
2022-10-23T02:52:53.561Z,98.53
2022-10-23T02:55:35.680Z,122.75
2022-10-23T02:58:14.358Z,220.80
2022-10-23T03:00:45.515Z,121.63
2022-10-23T03:03:17.373Z,87.90
2022-10-23T03:05:47.275Z,88.15
2022-10-23T03:08:14.852Z,139.10
2022-10-23T03:10:42.890Z,120.45
2022-10-23T03:13:12.748Z,85.88
2022-10-23T03:15:39.491Z,89.25
2022-10-23T03:18:06.221Z,116.40
2022-10-23T03:20:33.067Z,138.05
2022-10-23T03:22:59.749Z,99.57
2022-10-23T03:25:26.397Z,117.45
2022-10-23T03:27:53.176Z,162.35
2022-10-23T03:30:20.077Z,76.38
2022-10-23T03:32:46.797Z,113.10
2022-10-23T03:35:13.505Z,147.88
2022-10-23T03:37:40.238Z,198.57
2022-10-23T03:40:07.655Z,111.75
2022-10-23T03:42:34.500Z,131.95
2022-10-23T03:45:01.074Z,200.07
2022-10-23T03:47:30.230Z,129.48
2022-10-23T03:49:56.989Z,355.98
2022-10-23T03:54:51.300Z,292.50
2022-10-23T03:57:18.412Z,265.85
2022-10-23T03:59:45.028Z,233.25
2022-10-23T04:02:11.730Z,160.43
2022-10-23T04:04:38.512Z,266.33
2022-10-23T04:07:05.263Z,180.18
2022-10-23T04:09:31.931Z,103.45
2022-10-23T04:11:58.611Z,152.70
2022-10-23T04:14:26.054Z,94.32
2022-10-23T04:16:52.733Z,75.15
2022-10-23T04:19:19.416Z,93.10
2022-10-23T04:21:46.054Z,90.00
2022-10-23T04:24:12.685Z,112.03
2022-10-23T04:26:39.604Z,108.05
2022-10-23T04:29:06.327Z,151.95
2022-10-23T04:31:33.158Z,101.72
2022-10-23T04:33:59.970Z,279.65
2022-10-23T04:36:26.645Z,128.30
2022-10-23T04:38:53.397Z,141.00
2022-10-23T04:41:20.034Z,79.05
2022-10-23T04:43:46.675Z,124.53
2022-10-23T04:46:13.308Z,127.50
2022-10-23T04:48:39.972Z,115.32
2022-10-23T04:51:06.839Z,122.65
2022-10-23T04:53:33.760Z,164.70
2022-10-23T04:56:00.898Z,91.28
2022-10-23T04:58:28.935Z,161.50
2022-10-23T05:00:56.403Z,99.88
2022-10-23T05:03:25.366Z,164.90
2022-10-23T05:05:56.521Z,114.90
2022-10-23T05:08:24.077Z,144.52
2022-10-23T05:10:51.285Z,145.05
2022-10-23T05:13:19.899Z,164.40
2022-10-23T05:15:58.544Z,133.23
2022-10-23T05:18:29.330Z,152.20
2022-10-23T05:21:06.963Z,147.07
2022-10-23T05:23:36.681Z,136.95
2022-10-23T05:26:04.545Z,96.47
2022-10-23T05:28:31.232Z,99.80
2022-10-23T05:31:00.792Z,98.93
2022-10-23T05:33:28.294Z,146.45
2022-10-23T05:35:55.261Z,106.70
2022-10-23T05:38:22.652Z,110.47
2022-10-23T05:40:51.734Z,116.13
2022-10-23T05:43:18.492Z,78.95
2022-10-23T05:45:45.130Z,130.20
2022-10-23T05:48:22.898Z,119.25
2022-10-23T05:51:11.834Z,153.98
2022-10-23T05:53:41.675Z,136.38
2022-10-23T05:56:09.782Z,145.98
2022-10-23T05:58:36.922Z,125.45
2022-10-23T06:01:08.999Z,210.27
2022-10-23T06:03:37.079Z,144.07
2022-10-23T06:06:04.268Z,134.70
2022-10-23T06:08:32.160Z,150.25
2022-10-23T06:10:59.047Z,146.15
2022-10-23T06:13:25.872Z,134.95
2022-10-23T06:15:52.515Z,134.70
2022-10-23T06:18:19.160Z,134.93
2022-10-23T06:20:45.786Z,147.00
2022-10-23T06:23:12.449Z,138.43
2022-10-23T06:25:39.018Z,146.77
2022-10-23T06:28:05.660Z,146.77
2022-10-23T06:30:32.390Z,153.85
2022-10-23T06:33:02.141Z,147.15
2022-10-23T06:35:31.284Z,143.10
2022-10-23T06:37:58.181Z,145.07
2022-10-23T06:40:24.751Z,142.98
2022-10-23T06:42:51.332Z,149.02
2022-10-23T06:45:18.026Z,155.65
2022-10-23T06:47:44.918Z,169.55
2022-10-23T06:50:15.266Z,146.60
2022-10-23T06:52:46.966Z,159.00
2022-10-23T06:55:14.938Z,162.15
2022-10-23T06:57:42.127Z,150.05
2022-10-23T07:00:10.273Z,144.07
2022-10-23T07:02:37.042Z,251.30
2022-10-23T07:05:04.252Z,151.10
2022-10-23T07:07:31.318Z,196.48
2022-10-23T07:09:58.174Z,137.07
2022-10-23T07:12:25.296Z,136.30
2022-10-23T07:14:51.986Z,322.75
2022-10-23T07:17:18.541Z,234.68
2022-10-23T07:19:46.704Z,131.20
2022-10-23T07:22:15.884Z,134.00
2022-10-23T07:24:42.914Z,135.85
2022-10-23T07:27:09.977Z,144.20
2022-10-23T07:29:37.128Z,126.78
2022-10-23T07:32:04.736Z,162.68
2022-10-23T07:34:32.219Z,153.82
2022-10-23T07:36:58.930Z,114.43
2022-10-23T07:39:25.776Z,123.55
2022-10-23T07:41:52.618Z,149.45
2022-10-23T07:44:21.054Z,148.30
2022-10-23T07:46:49.865Z,160.10
2022-10-23T07:49:16.763Z,133.57
2022-10-23T07:51:45.528Z,190.27
2022-10-23T07:54:15.459Z,175.25
2022-10-23T07:56:42.293Z,204.23
2022-10-23T07:59:12.988Z,171.43
2022-10-23T08:01:40.842Z,157.48
2022-10-23T08:04:08.966Z,142.88
2022-10-23T08:06:36.000Z,216.48
2022-10-23T08:09:06.282Z,177.23
2022-10-23T08:11:35.872Z,161.82
2022-10-23T08:14:06.416Z,156.23
2022-10-23T08:16:34.917Z,148.05
2022-10-23T08:19:02.316Z,137.43
2022-10-23T08:21:29.009Z,145.13
2022-10-23T08:23:57.936Z,143.55
2022-10-23T08:26:26.255Z,138.77
2022-10-23T08:28:53.675Z,168.18
2022-10-23T08:31:21.575Z,185.15
2022-10-23T08:36:24.552Z,220.50
2022-10-23T08:38:55.706Z,223.00
2022-10-23T08:41:25.536Z,240.20
2022-10-23T08:44:01.164Z,240.38
2022-10-23T08:46:33.356Z,331.13
2022-10-23T08:49:18.542Z,240.35
2022-10-23T08:51:48.924Z,349.13
2022-10-23T08:54:47.660Z,239.18
2022-10-23T08:57:17.610Z,297.42
2022-10-23T08:59:58.915Z,296.98
2022-10-23T09:02:34.004Z,364.50
2022-10-23T09:05:00.902Z,337.85
2022-10-23T09:08:06.329Z,294.50
2022-10-23T09:10:51.762Z,300.15
2022-10-23T09:13:41.619Z,278.90
2022-10-23T09:16:22.831Z,289.63
2022-10-23T09:18:50.502Z,258.92
2022-10-23T09:21:17.316Z,294.88
2022-10-23T09:23:44.114Z,298.95
2022-10-23T09:26:18.628Z,285.33
2022-10-23T09:28:50.631Z,302.67
2022-10-23T09:31:19.575Z,305.23
2022-10-23T09:33:57.752Z,319.85
2022-10-23T09:36:27.584Z,375.20
2022-10-23T09:38:56.499Z,362.75
2022-10-23T09:41:28.840Z,386.05
2022-10-23T09:44:01.267Z,397.27
2022-10-23T09:46:44.766Z,370.48
2022-10-23T09:49:26.958Z,394.27
2022-10-23T09:52:24.751Z,464.45
2022-10-23T09:54:58.420Z,586.03
2022-10-23T09:57:38.288Z,397.95
2022-10-23T10:00:07.337Z,414.92
2022-10-23T10:02:36.783Z,384.08
2022-10-23T10:05:29.776Z,375.80
2022-10-23T10:08:10.939Z,404.65
2022-10-23T10:10:45.078Z,361.15
2022-10-23T10:16:11.788Z,497.25
2022-10-23T10:19:15.787Z,431.58
2022-10-23T10:22:17.459Z,455.17
2022-10-23T10:25:03.372Z,423.60
2022-10-23T10:27:42.323Z,445.67
2022-10-23T10:30:22.586Z,460.98
2022-10-23T10:33:03.154Z,451.33
2022-10-23T10:36:08.354Z,515.33
2022-10-23T10:41:22.862Z,575.25
2022-10-23T10:44:14.436Z,527.25
2022-10-23T10:46:49.734Z,505.58
2022-10-23T10:49:27.075Z,486.13
2022-10-23T10:52:25.016Z,488.52
2022-10-23T10:55:05.489Z,555.38
2022-10-23T10:57:46.681Z,547.03
2022-10-23T11:00:22.112Z,603.30
2022-10-23T11:02:53.556Z,521.40
2022-10-23T11:05:25.584Z,536.38
2022-10-23T11:08:13.689Z,550.72
2022-10-23T11:10:45.865Z,506.45
2022-10-23T11:13:29.225Z,497.52
2022-10-23T11:16:01.405Z,482.92
2022-10-23T11:18:31.049Z,441.88
2022-10-23T11:21:14.738Z,388.80
2022-10-23T11:27:08.969Z,531.33
2022-10-23T11:29:41.699Z,352.58
2022-10-23T11:32:44.477Z,439.80
2022-10-23T11:35:45.244Z,456.67
2022-10-23T11:38:24.291Z,385.65
2022-10-23T11:40:53.999Z,491.52
2022-10-23T11:43:33.828Z,398.48
2022-10-23T11:46:31.954Z,484.60
2022-10-23T11:49:02.372Z,496.08
2022-10-23T11:51:29.310Z,506.98
2022-10-23T11:54:25.048Z,500.40
2022-10-23T11:57:11.763Z,535.15
2022-10-23T11:59:48.124Z,508.30
2022-10-23T12:02:34.414Z,527.58
2022-10-23T12:05:22.721Z,560.08
2022-10-23T12:07:55.959Z,540.35
2022-10-23T12:10:55.557Z,540.57
2022-10-23T12:13:45.486Z,520.22
2022-10-23T12:16:13.122Z,540.78
2022-10-23T12:18:53.827Z,542.78
2022-10-23T12:21:28.511Z,525.42
2022-10-23T12:24:31.713Z,515.70
2022-10-23T12:27:27.484Z,534.28
2022-10-23T12:30:33.259Z,491.52
2022-10-23T12:32:59.791Z,506.70
2022-10-23T12:36:00.799Z,512.47
2022-10-23T12:38:33.853Z,467.90
2022-10-23T12:41:08.828Z,514.15
2022-10-23T12:43:38.255Z,524.90
2022-10-23T12:46:28.294Z,490.50
2022-10-23T12:48:59.312Z,516.28
2022-10-23T12:51:32.116Z,428.40
2022-10-23T12:53:59.151Z,488.70
2022-10-23T12:56:29.443Z,503.08
2022-10-23T12:59:02.152Z,506.92
2022-10-23T13:01:31.552Z,487.33
2022-10-23T13:04:34.915Z,524.45
2022-10-23T13:07:03.092Z,517.20
2022-10-23T13:09:42.043Z,432.20
2022-10-23T13:12:18.574Z,504.90
2022-10-23T13:15:15.906Z,481.58
2022-10-23T13:18:02.570Z,416.95
2022-10-23T13:20:29.196Z,481.55
2022-10-23T13:23:21.798Z,443.60
2022-10-23T13:26:00.388Z,468.20
2022-10-23T13:28:31.416Z,477.27
2022-10-23T13:31:10.138Z,462.30
2022-10-23T13:33:48.300Z,443.40
2022-10-23T13:36:14.984Z,423.27
2022-10-23T13:38:47.121Z,429.63
2022-10-23T13:41:16.924Z,379.23
2022-10-23T13:43:45.315Z,380.02
2022-10-23T13:46:16.658Z,338.13
2022-10-23T13:48:43.441Z,330.30
2022-10-23T13:51:15.017Z,340.15
2022-10-23T13:53:42.025Z,331.25
2022-10-23T13:56:12.475Z,317.35
2022-10-23T13:58:39.511Z,311.52
2022-10-23T14:01:07.197Z,319.05
2022-10-23T14:03:34.352Z,309.40
2022-10-23T14:06:01.436Z,354.95
2022-10-23T14:08:28.394Z,353.73
2022-10-23T14:10:55.371Z,346.90
2022-10-23T14:13:21.991Z,338.42
2022-10-23T14:15:58.168Z,320.15
2022-10-23T14:18:24.765Z,339.58
2022-10-23T14:20:51.374Z,328.83
2022-10-23T14:23:18.308Z,342.05
2022-10-23T14:25:44.922Z,341.75
2022-10-23T14:28:11.568Z,327.10
2022-10-23T14:30:38.567Z,296.00
2022-10-23T14:33:05.132Z,330.63
2022-10-23T14:35:31.781Z,312.90
2022-10-23T14:37:58.854Z,317.90
2022-10-23T14:40:25.574Z,334.13
2022-10-23T14:42:52.287Z,336.83
2022-10-23T14:45:19.736Z,307.88
2022-10-23T14:47:46.649Z,318.15
2022-10-23T14:50:14.095Z,349.77
2022-10-23T14:52:41.251Z,351.90
2022-10-23T14:55:08.459Z,352.20
2022-10-23T14:57:35.108Z,370.83
2022-10-23T15:00:01.974Z,393.38
2022-10-23T15:02:28.573Z,398.48
2022-10-23T15:04:55.585Z,406.63
2022-10-23T15:07:22.394Z,413.60
2022-10-23T15:09:50.739Z,379.77
2022-10-23T15:12:17.726Z,403.40
2022-10-23T15:14:44.727Z,434.05
2022-10-23T15:17:15.416Z,465.00
2022-10-23T15:19:42.555Z,445.90
2022-10-23T15:22:09.348Z,485.20
2022-10-23T15:24:36.186Z,511.35
2022-10-23T15:27:02.880Z,501.15
2022-10-23T15:29:29.819Z,514.05
2022-10-23T15:32:01.508Z,491.23
2022-10-23T15:34:29.254Z,566.55
2022-10-23T15:36:57.270Z,561.17
2022-10-23T15:39:26.545Z,555.40
2022-10-23T15:41:56.091Z,554.40
2022-10-23T15:44:25.336Z,569.25
2022-10-23T15:46:52.020Z,571.72
2022-10-23T15:49:20.239Z,576.03
2022-10-23T15:51:47.247Z,572.40
2022-10-23T15:54:19.320Z,560.42
2022-10-23T15:56:48.360Z,568.75
2022-10-23T15:59:16.018Z,558.90
2022-10-23T16:01:42.680Z,594.05
2022-10-23T16:04:09.786Z,583.90
2022-10-23T16:06:36.556Z,591.33
2022-10-23T16:09:03.899Z,587.95
2022-10-23T16:11:35.013Z,566.83
2022-10-23T16:14:03.665Z,533.47
2022-10-23T16:16:31.675Z,604.88
2022-10-23T16:19:00.719Z,588.60
2022-10-23T16:21:32.079Z,585.63
2022-10-23T16:24:00.976Z,613.83
2022-10-23T16:26:29.717Z,607.88
2022-10-23T16:28:59.079Z,602.38
2022-10-23T16:31:26.473Z,607.78
2022-10-23T16:33:53.900Z,609.70
2022-10-23T16:36:22.275Z,624.63
2022-10-23T16:38:48.907Z,612.47
2022-10-23T16:41:15.801Z,620.85
2022-10-23T16:43:42.562Z,628.42
2022-10-23T16:46:12.518Z,600.53
2022-10-23T16:48:40.261Z,597.42
2022-10-23T16:51:08.829Z,652.65
2022-10-23T16:53:35.715Z,641.30
2022-10-23T16:56:07.985Z,636.80
2022-10-23T16:58:35.454Z,645.47
2022-10-23T17:01:06.030Z,630.78
2022-10-23T17:03:44.645Z,609.60
2022-10-23T17:06:13.840Z,644.67
2022-10-23T17:08:41.368Z,502.95
2022-10-23T17:11:11.917Z,512.60
2022-10-23T17:13:41.864Z,585.45
2022-10-23T17:16:10.402Z,566.97
2022-10-23T17:18:41.289Z,551.33
2022-10-23T17:21:11.360Z,585.07
2022-10-23T17:23:38.007Z,531.45
2022-10-23T17:26:11.810Z,495.50
2022-10-23T17:28:41.669Z,539.58
2022-10-23T17:31:19.902Z,524.38
2022-10-23T17:33:48.112Z,524.25
2022-10-23T17:36:16.274Z,519.15
2022-10-23T17:38:43.985Z,500.40
2022-10-23T17:41:13.100Z,511.67
2022-10-23T17:43:40.980Z,514.50
2022-10-23T17:46:10.939Z,518.40
2022-10-23T17:48:40.172Z,501.48
2022-10-23T17:51:11.240Z,502.40
2022-10-23T17:53:40.989Z,501.88
2022-10-23T17:56:11.122Z,509.35
2022-10-23T17:58:37.816Z,552.28
2022-10-23T18:01:08.864Z,531.38
2022-10-23T18:03:37.860Z,505.40
2022-10-23T18:06:18.103Z,513.15
2022-10-23T18:08:45.459Z,521.50
2022-10-23T18:11:17.089Z,537.15
2022-10-23T18:13:44.104Z,509.77
2022-10-23T18:16:11.940Z,530.88
2022-10-23T18:18:40.935Z,560.63
2022-10-23T18:21:09.635Z,569.90
2022-10-23T18:23:37.104Z,555.72
2022-10-23T18:26:05.183Z,501.10
2022-10-23T18:28:32.691Z,503.25
2022-10-23T18:30:59.284Z,498.90
2022-10-23T18:33:26.645Z,505.73
2022-10-23T18:35:53.494Z,509.02
2022-10-23T18:38:21.075Z,501.38
2022-10-23T18:40:53.944Z,501.70
2022-10-23T18:43:41.971Z,516.90
2022-10-23T18:46:08.512Z,536.08
2022-10-23T18:48:35.811Z,580.13
2022-10-23T18:51:02.524Z,545.33
2022-10-23T18:53:29.285Z,573.53
2022-10-23T18:55:56.307Z,570.60
2022-10-23T18:58:22.890Z,527.47
2022-10-23T19:00:50.067Z,517.78
2022-10-23T19:03:16.892Z,571.17
2022-10-23T19:05:45.089Z,585.47
2022-10-23T19:08:12.601Z,559.05
2022-10-23T19:10:42.482Z,522.17
2022-10-23T19:13:09.113Z,605.60
2022-10-23T19:15:37.497Z,543.00
2022-10-23T19:18:07.138Z,531.05
2022-10-23T19:20:34.055Z,512.65
2022-10-23T19:23:02.413Z,509.13
2022-10-23T19:25:32.962Z,537.83
2022-10-23T19:28:01.997Z,519.58
2022-10-23T19:30:29.373Z,532.97
2022-10-23T19:32:56.189Z,535.63
2022-10-23T19:35:23.340Z,519.95
2022-10-23T19:37:50.653Z,542.45
2022-10-23T19:40:17.882Z,531.72
2022-10-23T19:42:44.573Z,538.03
2022-10-23T19:45:14.321Z,532.00
2022-10-23T19:47:41.483Z,500.80
2022-10-23T19:50:09.250Z,515.58
2022-10-23T19:52:36.191Z,520.40
2022-10-23T19:55:04.336Z,526.33
2022-10-23T19:57:33.902Z,578.42
2022-10-23T20:00:01.719Z,554.03
2022-10-23T20:02:28.852Z,518.58
2022-10-23T20:04:55.757Z,579.03
2022-10-23T20:07:22.954Z,626.13
2022-10-23T20:09:49.699Z,597.80
2022-10-23T20:12:16.927Z,630.22
2022-10-23T20:14:43.746Z,575.15
2022-10-23T20:17:10.651Z,629.17
2022-10-23T20:19:37.459Z,659.60
2022-10-23T20:22:04.168Z,662.72
2022-10-23T20:24:30.991Z,611.30
2022-10-23T20:26:57.665Z,657.45
2022-10-23T20:29:25.052Z,569.67
2022-10-23T20:31:52.382Z,587.95
2022-10-23T20:34:19.658Z,601.47
2022-10-23T20:36:51.322Z,649.42
2022-10-23T20:39:24.744Z,678.03
2022-10-23T20:41:51.886Z,661.05
2022-10-23T20:44:19.368Z,667.95
2022-10-23T20:46:46.374Z,656.10
2022-10-23T20:49:14.141Z,636.80
2022-10-23T20:51:41.174Z,640.63
2022-10-23T20:54:08.147Z,590.10
2022-10-23T20:56:37.083Z,599.10
2022-10-23T20:59:11.184Z,587.95
2022-10-23T21:01:40.678Z,613.90
2022-10-23T21:04:07.328Z,636.17
2022-10-23T21:06:46.193Z,656.75
2022-10-23T21:09:21.813Z,652.10
2022-10-23T21:11:48.531Z,632.88
2022-10-23T21:14:15.111Z,597.08
2022-10-23T21:16:44.600Z,657.08
2022-10-23T21:19:16.082Z,649.78
2022-10-23T21:21:43.633Z,659.95
2022-10-23T21:24:14.884Z,650.53
2022-10-23T21:26:41.765Z,669.60
2022-10-23T21:29:23.999Z,662.67
2022-10-23T21:31:56.465Z,640.97
2022-10-23T21:34:25.510Z,638.08
2022-10-23T21:37:12.945Z,616.28
2022-10-23T21:39:39.222Z,572.85
2022-10-23T21:42:05.936Z,670.97
2022-10-23T21:44:32.871Z,650.45
2022-10-23T21:46:59.709Z,658.00
2022-10-23T21:49:26.289Z,578.38
2022-10-23T21:51:55.063Z,605.70
2022-10-23T21:54:22.012Z,617.65
2022-10-23T21:56:51.056Z,494.83
2022-10-23T21:59:20.439Z,528.42
2022-10-23T22:01:48.755Z,570.22
2022-10-23T22:04:19.261Z,532.00
2022-10-23T22:06:47.703Z,478.25
2022-10-23T22:09:19.548Z,525.38
2022-10-23T22:11:46.888Z,529.58
2022-10-23T22:14:13.512Z,499.60
2022-10-23T22:16:42.122Z,524.60
2022-10-23T22:19:11.396Z,504.60
2022-10-23T22:21:38.066Z,558.15
2022-10-23T22:24:04.927Z,499.25
2022-10-23T22:26:38.290Z,492.83
2022-10-23T22:29:11.124Z,505.03
2022-10-23T22:31:39.378Z,493.42
2022-10-23T22:34:18.965Z,483.60
2022-10-23T22:36:54.680Z,487.08
2022-10-23T22:39:21.588Z,571.55
2022-10-23T22:41:48.256Z,540.45
2022-10-23T22:44:15.561Z,540.97
2022-10-23T22:46:42.604Z,581.95
2022-10-23T22:49:09.509Z,591.40
2022-10-23T22:51:37.918Z,526.42
2022-10-23T22:54:04.914Z,580.58
2022-10-23T22:56:31.582Z,579.90
2022-10-23T22:58:58.577Z,581.63
2022-10-23T23:01:34.962Z,584.25
2022-10-23T23:04:13.772Z,580.33
2022-10-23T23:06:46.643Z,587.63
2022-10-23T23:09:17.901Z,590.13
2022-10-23T23:11:51.714Z,551.67
2022-10-23T23:14:23.026Z,543.85
2022-10-23T23:16:52.270Z,569.17
2022-10-23T23:19:18.992Z,570.13
2022-10-23T23:21:45.916Z,582.47
2022-10-23T23:24:12.638Z,575.78
2022-10-23T23:26:39.276Z,569.40
2022-10-23T23:29:06.432Z,578.60
2022-10-23T23:31:33.065Z,560.10
2022-10-23T23:33:59.756Z,507.15
2022-10-23T23:36:27.477Z,514.70
2022-10-23T23:38:55.441Z,533.42
2022-10-23T23:41:23.264Z,498.73
2022-10-23T23:43:50.926Z,523.38
2022-10-23T23:46:18.155Z,558.50
2022-10-23T23:48:48.049Z,564.03
2022-10-23T23:51:16.718Z,561.85
2022-10-23T23:53:43.471Z,577.95
2022-10-23T23:56:10.426Z,552.15
2022-10-23T23:58:37.355Z,553.70
